Flight Track Log - Related Links

Times and Time Zones

All times are in EDT time to prevent confusion due to time zone crossing. See the SWA1535 flight status page for this flight to view local times or setup timezone preferences in your user account.

Time Position Orientation Groundspeed Altitude Reporting Facility
EDT Latitude Longitude Course Direction KTS MPH feet Rate Location/Type
Sun 06:43:21 AM 26.0750 -80.1367 81° East 151 174 700  Level Miami Center
Sun 06:43:45 AM 26.0775 -80.1183 81° East 159 183 1,400 1,929 Climbing Miami Center
Sun 06:44:45 AM 26.0850 -80.0583 82° East 219 252 3,400 1,878 Climbing Miami Center
Sun 06:45:40 AM 26.1369 -80.0689 350° North 268 308 5,000 2,066 Climbing Miami Center
Sun 06:46:47 AM 26.1875 -80.1514 304° West 286 329 7,600 2,015 Climbing Miami Center
Sun 06:47:51 AM 26.2358 -80.2222 307° West 303 349 9,400 1,935 Climbing Miami Center
Sun 06:48:51 AM 26.2922 -80.3164 304° West 329 379 11,600 2,550 Climbing Miami Center
Sun 06:49:51 AM 26.3444 -80.4036 304° West 368 423 14,500 3,050 Climbing Miami Center
Sun 06:50:51 AM 26.4106 -80.5122 304° West 386 444 17,700 2,850 Climbing Miami Center
Sun 06:51:51 AM 26.4797 -80.5911 314° West 386 444 20,200 2,550 Climbing Miami Center
Sun 06:52:51 AM 26.5819 -80.6686 326° Northwest 398 458 22,800 2,300 Climbing Miami Center
Sun 06:53:51 AM 26.6700 -80.7367 325° Northwest 423 487 24,800 1,850 Climbing Miami Center
Sun 06:54:51 AM 26.7683 -80.8119 326° Northwest 423 487 26,500 1,650 Climbing Miami Center
Sun 06:55:51 AM 26.8706 -80.8900 326° Northwest 434 499 28,100 1,550 Climbing Miami Center
Sun 06:56:51 AM 26.9747 -80.9728 325° Northwest 439 505 29,600 1,800 Climbing Miami Center
Sun 06:57:51 AM 27.0789 -81.0511 326° Northwest 439 505 31,700 1,900 Climbing Miami Center
Sun 06:58:51 AM 27.1789 -81.1269 326° Northwest 439 505 33,400 1,650 Climbing Miami Center
Sun 06:59:51 AM 27.2769 -81.2053 325° Northwest 439 505 35,000 1,650 Climbing Miami Center
Sun 07:00:51 AM 27.3747 -81.2817 325° Northwest 433 498 36,700 1,500 Climbing Miami Center
Sun 07:01:51 AM 27.4706 -81.3556 326° Northwest 428 493 38,000 650 Climbing Miami Center
Sun 07:02:51 AM 27.5644 -81.4269 326° Northwest 422 486 38,000  Level Miami Center
Sun 07:03:51 AM 27.6581 -81.5011 325° Northwest 422 486 38,000  Level Miami Center
Sun 07:04:51 AM 27.7619 -81.5803 326° Northwest 417 480 38,000  Level Miami Center
Sun 07:05:51 AM 27.8453 -81.6472 325° Northwest 417 480 38,000  Level Miami Center
Sun 07:07:40 AM 28.0283 -81.7875 326° Northwest 417 480 38,000  Level Jacksonville Center
Sun 07:08:40 AM 28.1228 -81.8617 325° Northwest 417 480 38,000  Level Jacksonville Center
Sun 07:09:40 AM 28.2153 -81.9364 325° Northwest 417 480 38,000  Level Jacksonville Center
Sun 07:10:40 AM 28.3075 -82.0083 326° Northwest 411 473 38,000  Level Jacksonville Center
Sun 07:11:40 AM 28.3978 -82.0808 325° Northwest 404 465 38,000  Level Jacksonville Center
Sun 07:12:40 AM 28.4900 -82.1508 326° Northwest 404 465 38,000  Level Jacksonville Center
Sun 07:13:40 AM 28.5781 -82.2236 324° Northwest 399 459 38,000  Level Jacksonville Center
Sun 07:14:40 AM 28.6703 -82.2939 326° Northwest 399 459 38,000  Level Jacksonville Center
Sun 07:15:40 AM 28.7583 -82.3692 323° Northwest 399 459 38,000  Level Jacksonville Center
Sun 07:16:40 AM 28.8483 -82.4422 325° Northwest 399 459 38,000  Level Jacksonville Center
Sun 07:17:40 AM 28.9383 -82.5131 325° Northwest 399 459 38,000  Level Jacksonville Center
Sun 07:18:40 AM 29.0281 -82.5861 325° Northwest 399 459 38,000  Level Jacksonville Center
Sun 07:19:40 AM 29.1203 -82.6619 324° Northwest 404 465 38,000  Level Jacksonville Center
Sun 07:20:40 AM 29.2122 -82.7356 325° Northwest 404 465 38,000  Level Jacksonville Center
Sun 07:21:40 AM 29.3019 -82.8092 324° Northwest 404 465 38,000  Level Jacksonville Center
Sun 07:22:40 AM 29.3939 -82.8831 325° Northwest 404 465 38,000  Level Jacksonville Center
Sun 07:23:40 AM 29.4814 -82.9569 324° Northwest 404 465 38,000  Level Jacksonville Center
Sun 07:24:40 AM 29.5753 -83.0333 325° Northwest 409 471 38,000  Level Jacksonville Center
Sun 07:25:40 AM 29.6608 -83.1078 323° Northwest 404 465 38,000  Level Jacksonville Center
Sun 07:26:40 AM 29.7483 -83.1867 322° Northwest 390 449 38,000  Level Jacksonville Center
Sun 07:27:40 AM 29.8256 -83.2542 323° Northwest 390 449 38,000  Level Jacksonville Center
Sun 07:28:40 AM 29.9131 -83.3311 323° Northwest 390 449 38,000  Level Jacksonville Center
Sun 07:29:40 AM 29.9961 -83.4058 322° Northwest 390 449 38,000  Level Jacksonville Center
Sun 07:30:40 AM 30.0814 -83.4831 322° Northwest 390 449 38,000  Level Jacksonville Center
Sun 07:31:40 AM 30.1667 -83.5606 322° Northwest 390 449 38,000  Level Jacksonville Center
Sun 07:32:40 AM 30.2497 -83.6381 321° Northwest 390 449 38,000  Level Jacksonville Center
Sun 07:33:40 AM 30.3369 -83.7158 322° Northwest 390 449 38,000  Level Jacksonville Center
Sun 07:34:40 AM 30.4200 -83.7911 322° Northwest 390 449 38,000  Level Jacksonville Center
Sun 07:35:40 AM 30.5028 -83.8667 322° Northwest 385 443 38,000  Level Jacksonville Center
Sun 07:36:40 AM 30.5900 -83.9494 321° Northwest 374 430 38,000  Level Jacksonville Center
Sun 07:37:40 AM 30.6708 -84.0228 322° Northwest 374 430 38,000  Level Jacksonville Center
Sun 07:38:40 AM 30.7494 -84.0964 321° Northwest 374 430 38,000  Level Jacksonville Center
Sun 07:39:40 AM 30.8303 -84.1675 323° Northwest 374 430 38,000  Level Jacksonville Center
Sun 07:40:40 AM 30.9108 -84.2461 320° Northwest 374 430 38,000  Level Jacksonville Center
Sun 07:41:40 AM 30.9894 -84.3175 322° Northwest 374 430 38,000  Level Jacksonville Center
Sun 07:42:40 AM 31.0678 -84.3914 321° Northwest 369 425 38,000  Level Jacksonville Center
Sun 07:43:40 AM 31.1483 -84.4656 322° Northwest 369 425 38,000  Level Jacksonville Center
Sun 07:45:54 AM 31.3236 -84.6319 321° Northwest 371 427 38,000  Level Atlanta Center
Sun 07:46:54 AM 31.4025 -84.7031 322° Northwest 366 421 38,000  Level Atlanta Center
Sun 07:47:54 AM 31.4814 -84.7742 322° Northwest 366 421 38,000  Level Atlanta Center
Sun 07:48:54 AM 31.5603 -84.8528 320° Northwest 366 421 38,000  Level Atlanta Center
Sun 07:49:54 AM 31.6392 -84.9267 321° Northwest 366 421 38,000  Level Atlanta Center
Sun 07:50:54 AM 31.7178 -85.0008 321° Northwest 366 421 38,000  Level Atlanta Center
Sun 07:51:54 AM 31.8006 -85.0797 321° Northwest 376 433 38,000  Level Atlanta Center
Sun 07:52:54 AM 31.8794 -85.1492 323° Northwest 371 427 38,000  Level Atlanta Center
Sun 07:53:54 AM 31.9581 -85.2261 320° Northwest 371 427 38,000  Level Atlanta Center
Sun 07:54:54 AM 32.0367 -85.3006 321° Northwest 371 427 38,000  Level Atlanta Center
Sun 07:55:54 AM 32.1172 -85.3728 323° Northwest 371 427 38,000  Level Atlanta Center
Sun 07:56:54 AM 32.1914 -85.4475 320° Northwest 371 427 38,000  Level Atlanta Center
Sun 07:57:54 AM 32.2719 -85.5225 322° Northwest 371 427 38,000  Level Atlanta Center
Sun 07:58:54 AM 32.3503 -85.6000 320° Northwest 371 427 38,000  Level Atlanta Center
Sun 07:59:54 AM 32.4308 -85.6778 321° Northwest 371 427 38,000  Level Atlanta Center
Sun 08:00:54 AM 32.5111 -85.7531 322° Northwest 371 427 38,000  Level Atlanta Center
Sun 08:01:54 AM 32.5914 -85.8336 320° Northwest 371 427 38,000  Level Atlanta Center
Sun 08:02:54 AM 32.6717 -85.9092 322° Northwest 371 427 38,000  Level Atlanta Center
Sun 08:03:54 AM 32.7539 -85.9900 320° Northwest 376 433 38,000  Level Atlanta Center
Sun 08:04:54 AM 32.8342 -86.0686 321° Northwest 376 433 38,000  Level Atlanta Center
Sun 08:05:54 AM 32.9122 -86.1469 320° Northwest 376 433 38,000  Level Atlanta Center
Sun 08:06:54 AM 32.9942 -86.2258 321° Northwest 376 433 38,000  Level Atlanta Center
Sun 08:07:54 AM 33.0719 -86.3069 319° Northwest 376 433 38,000  Level Atlanta Center
Sun 08:08:54 AM 33.1542 -86.3786 324° Northwest 371 427 38,000  Level Atlanta Center
Sun 08:09:54 AM 33.2236 -86.4575 316° Northwest 376 433 38,000  Level Atlanta Center
Sun 08:10:54 AM 33.3078 -86.5344 323° Northwest 376 433 38,000  Level Atlanta Center
Sun 08:11:54 AM 33.3853 -86.6136 320° Northwest 371 427 38,000  Level Atlanta Center
Sun 08:12:54 AM 33.4650 -86.6958 319° Northwest 371 427 38,000  Level Atlanta Center
Sun 08:13:54 AM 33.5467 -86.7756 321° Northwest 371 427 38,000  Level Atlanta Center
Sun 08:14:54 AM 33.6244 -86.8528 320° Northwest 371 427 38,000  Level Atlanta Center
Sun 08:15:54 AM 33.7147 -86.9183 329° Northwest 376 433 38,000  Level Atlanta Center
Sun 08:16:54 AM 33.8158 -86.9692 337° Northwest 376 433 38,000  Level Atlanta Center
Sun 08:17:54 AM 33.9147 -87.0150 339° North 383 441 38,000  Level Atlanta Center
Sun 08:20:09 AM 34.1369 -87.1250 338° Northwest 395 455 38,000  Level Memphis Center
Sun 08:21:09 AM 34.2383 -87.1739 338° Northwest 395 455 38,000  Level Memphis Center
Sun 08:22:09 AM 34.3564 -87.2222 341° North 400 460 38,000  Level Memphis Center
Sun 08:23:09 AM 34.4578 -87.2742 337° Northwest 392 451 38,000  Level Memphis Center
Sun 08:24:09 AM 34.5614 -87.3233 339° North 401 461 38,000  Level Memphis Center
Sun 08:25:09 AM 34.6628 -87.3803 335° Northwest 401 461 38,000  Level Memphis Center
Sun 08:26:09 AM 34.7661 -87.4272 340° North 401 461 38,000  Level Memphis Center
Sun 08:27:09 AM 34.8717 -87.4767 339° North 401 461 38,000  Level Memphis Center
Sun 08:28:09 AM 34.9750 -87.5264 338° Northwest 396 456 38,000  Level Memphis Center
Sun 08:29:09 AM 35.0783 -87.5811 337° Northwest 396 456 38,000  Level Memphis Center
Sun 08:30:09 AM 35.1775 -87.6236 341° North 401 461 38,000  Level Memphis Center
Sun 08:31:09 AM 35.2828 -87.6761 338° Northwest 401 461 38,000  Level Memphis Center
Sun 08:32:09 AM 35.3883 -87.7261 339° North 401 461 38,000  Level Memphis Center
Sun 08:33:09 AM 35.4917 -87.7842 335° Northwest 401 461 38,000  Level Memphis Center
Sun 08:34:09 AM 35.5969 -87.8369 338° Northwest 401 461 38,000  Level Memphis Center
Sun 08:35:09 AM 35.7064 -87.8900 339° North 406 467 38,000  Level Memphis Center
Sun 08:36:09 AM 35.8267 -87.9478 339° North 417 480 38,000  Level Memphis Center
Sun 08:37:09 AM 35.9339 -88.0036 337° Northwest 417 480 38,000  Level Memphis Center
Sun 08:38:09 AM 36.0456 -88.0569 339° North 422 486 38,000  Level Memphis Center
Sun 08:39:09 AM 36.1569 -88.1153 337° Northwest 422 486 38,000  Level Memphis Center
Sun 08:40:09 AM 36.2683 -88.1639 341° North 422 486 38,000  Level Memphis Center
Sun 08:41:09 AM 36.3800 -88.2228 337° Northwest 422 486 38,000  Level Memphis Center
Sun 08:42:09 AM 36.4956 -88.2817 338° Northwest 428 493 38,000  Level Memphis Center
Sun 08:43:09 AM 36.6069 -88.3381 338° Northwest 433 498 38,000  Level Memphis Center
Sun 08:44:09 AM 36.7225 -88.3972 338° Northwest 438 504 38,000  Level Memphis Center
Sun 08:45:09 AM 36.8317 -88.4517 338° Northwest 438 504 38,000  Level Memphis Center
Sun 08:46:09 AM 36.9431 -88.5114 337° Northwest 438 504 38,000  Level Memphis Center
Sun 08:47:09 AM 37.0544 -88.5686 338° Northwest 433 498 38,000  Level Memphis Center
Sun 08:48:09 AM 37.1636 -88.6258 337° Northwest 428 493 38,000  Level Memphis Center
Sun 08:50:17 AM 37.3775 -88.7372 338° Northwest 425 489 38,000  Level Kansas City Center
Sun 08:51:18 AM 37.4869 -88.7933 338° Northwest 425 489 38,000  Level Kansas City Center
Sun 08:52:19 AM 37.5975 -88.8531 337° Northwest 430 495 38,000  Level Kansas City Center
Sun 08:53:20 AM 37.7292 -88.9217 338° Northwest 427 491 38,000  Level Kansas City Center
Sun 08:54:21 AM 37.8358 -88.9708 340° North 430 495 38,000  Level Kansas City Center
Sun 08:55:22 AM 37.9639 -88.9625 North 441 507 38,000  Level Kansas City Center
Sun 08:56:23 AM 38.0858 -88.9528 North 449 517 38,000  Level Kansas City Center
Sun 08:57:23 AM 38.2075 -88.9444 North 446 513 38,000 -50 Level Kansas City Center
Sun 08:58:24 AM 38.3472 -88.9331 North 446 513 37,900 -541 Descending Kansas City Center
Sun 08:59:25 AM 38.4697 -88.9231 North 444 511 36,900 -984 Descending Kansas City Center
Sun 09:00:26 AM 38.5883 -88.9147 North 433 498 35,900 -885 Descending Kansas City Center
Sun 09:01:27 AM 38.6936 -88.9058 North 435 501 35,100 -443 Descending Kansas City Center
Sun 09:02:28 AM 38.8369 -88.8933 North 433 498 35,000 -541 Descending Kansas City Center
Sun 09:03:29 AM 38.9550 -88.8842 North 430 495 34,000 -984 Descending Kansas City Center
Sun 09:04:30 AM 39.0747 -88.8742 North 430 495 33,000 -984 Descending Kansas City Center
Sun 09:05:31 AM 39.1942 -88.8653 North 432 497 32,000 -984 Descending Kansas City Center
Sun 09:06:32 AM 39.3111 -88.8558 North 426 490 31,000 -1,033 Descending Kansas City Center
Sun 09:07:33 AM 39.4389 -88.8450 North 423 487 29,900 -984 Descending Kansas City Center
Sun 09:08:34 AM 39.5558 -88.8361 North 422 486 29,000 -443 Descending Kansas City Center
Sun 09:09:35 AM 39.6706 -88.8267 North 416 479 29,000  Level Kansas City Center
Sun 09:10:36 AM 39.7842 -88.8178 North 412 474 29,000  Level Kansas City Center
Sun 09:11:38 AM 39.8997 -88.8081 North 414 476 29,000  Level Kansas City Center
Sun 09:12:39 AM 40.0142 -88.7986 North 415 478 29,000 -393 Level Kansas City Center
Sun 09:13:40 AM 40.1292 -88.7889 North 414 476 28,200 -848 Descending Kansas City Center
Sun 09:14:18 AM 40.1961 -88.7850 North 414 476 27,600 -1,091 Descending Chicago Center
Sun 09:15:19 AM 40.3075 -88.7769 North 404 465 26,400 -1,610 Descending Chicago Center
Sun 09:16:21 AM 40.4386 -88.7656 North 396 456 24,300 -1,742 Descending Chicago Center
Sun 09:17:23 AM 40.5442 -88.7569 North 408 470 22,800 -1,707 Descending Chicago Center
Sun 09:18:24 AM 40.6619 -88.7469 North 424 488 20,800 -2,244 Descending Chicago Center
Sun 09:19:26 AM 40.7750 -88.7372 North 411 473 18,200 -2,634 Descending Chicago Center
Sun 09:20:27 AM 40.8956 -88.6817 19° North 390 449 15,400 -2,683 Descending Chicago Center
Sun 09:21:29 AM 40.9967 -88.6267 22° Northeast 391 450 12,700 -2,226 Descending Chicago Center
Sun 09:22:31 AM 41.0911 -88.5725 23° Northeast 376 433 10,800 -1,268 Descending Chicago Center
Sun 09:23:32 AM 41.1756 -88.5247 23° Northeast 335 386 10,100 -1,024 Descending Chicago Center
Sun 09:24:34 AM 41.2514 -88.4833 22° Northeast 303 349 8,700 -1,415 Descending Chicago Center
Sun 09:25:35 AM 41.3239 -88.4419 23° Northeast 286 329 7,200 -1,317 Descending Chicago Center
Sun 09:26:37 AM 41.3919 -88.3956 27° Northeast 278 320 6,000 -677 Descending Chicago Center
Sun 09:27:39 AM 41.4458 -88.2989 53° Northeast 270 311 5,800 -629 Descending Chicago Center
Sun 09:28:41 AM 41.4897 -88.2186 54° Northeast 268 308 4,700 -878 Descending Chicago Center
Sun 09:29:42 AM 41.5328 -88.1406 54° Northeast 261 300 4,000 -341 Descending Chicago Center
Sun 09:30:44 AM 41.5744 -88.0631 54° Northeast 258 297 4,000  Level Chicago Center
Sun 09:31:46 AM 41.6158 -87.9861 54° Northeast 256 295 4,000  Level Chicago Center
Sun 09:32:48 AM 41.6531 -87.9183 54° Northeast 242 278 4,000 -488 Level Chicago Center
Sun 09:33:49 AM 41.6950 -87.8647 44° Northeast 223 257 3,000 -1,113 Descending Chicago Center
Sun 09:34:25 AM 41.7167 -87.8333 47° Northeast 185 213 2,200 -938 Descending Chicago TRACON
Sun 09:35:25 AM 41.7500 -87.8000 37° Northeast 130 150 1,500 -700 Descending Chicago TRACON
Sun 09:38:00 AM 41.7833 -87.7500 270° West  Level FlightAware Approximate

Login

Don't have an account? Register now (free) for customized features, flight alerts, and more!